CPX454 Details

Departure: March Air Reserve Base (KRIV)
Arrival: Portland International Airport (KPDX)
Route: SOPEA1 OCN J1 LAX J88 SNS SPNSR TMBRS2


Current Weather Information
KRIV 231358Z AUTO 00000KT 8SM CLR 08/M03 A2996 RMK AO2 SLP138 T00751028
KPDX 231353Z VRB03KT 1/4SM R10R/6000VP6000FT BR OVC002 08/07 A3046 RMK AO2 SFC VIS 2 SLP314 T00780067